sensor_id;sensor_type;location;lat;lon;timestamp;temperature;humidity
10314;DHT22;5202;49.138;10.090;2023-05-07T00:01:48;11.80;99.90
10314;DHT22;5202;49.138;10.090;2023-05-07T00:04:19;11.80;99.90
10314;DHT22;5202;49.138;10.090;2023-05-07T00:06:48;11.80;99.90
10314;DHT22;5202;49.138;10.090;2023-05-07T00:09:40;11.80;99.90
10314;DHT22;5202;49.138;10.090;2023-05-07T00:12:12;11.80;99.90
10314;DHT22;5202;49.138;10.090;2023-05-07T00:14:41;11.80;99.90
10314;DHT22;5202;49.138;10.090;2023-05-07T00:17:09;11.80;99.90
10314;DHT22;5202;49.138;10.090;2023-05-07T00:19:38;11.80;99.90
10314;DHT22;5202;49.138;10.090;2023-05-07T00:22:07;11.60;99.90
10314;DHT22;5202;49.138;10.090;2023-05-07T00:24:36;11.50;99.90
10314;DHT22;5202;49.138;10.090;2023-05-07T00:27:04;11.50;99.90
10314;DHT22;5202;49.138;10.090;2023-05-07T00:29:34;11.40;99.90
10314;DHT22;5202;49.138;10.090;2023-05-07T00:32:03;11.40;99.90
10314;DHT22;5202;49.138;10.090;2023-05-07T00:34:32;11.40;99.90
10314;DHT22;5202;49.138;10.090;2023-05-07T00:37:01;11.30;99.90
10314;DHT22;5202;49.138;10.090;2023-05-07T00:39:32;11.30;99.90
10314;DHT22;5202;49.138;10.090;2023-05-07T00:42:00;11.20;99.90
10314;DHT22;5202;49.138;10.090;2023-05-07T00:44:29;11.10;99.90
10314;DHT22;5202;49.138;10.090;2023-05-07T00:47:02;11.10;99.90
10314;DHT22;5202;49.138;10.090;2023-05-07T00:49:37;11.00;99.90
10314;DHT22;5202;49.138;10.090;2023-05-07T00:52:09;11.00;99.90
10314;DHT22;5202;49.138;10.090;2023-05-07T00:54:40;11.00;99.90
10314;DHT22;5202;49.138;10.090;2023-05-07T00:57:10;11.00;99.90
10314;DHT22;5202;49.138;10.090;2023-05-07T00:59:39;11.00;99.90
10314;DHT22;5202;49.138;10.090;2023-05-07T01:02:09;11.00;99.90
10314;DHT22;5202;49.138;10.090;2023-05-07T01:04:38;11.00;99.90
10314;DHT22;5202;49.138;10.090;2023-05-07T01:07:07;11.00;99.90
10314;DHT22;5202;49.138;10.090;2023-05-07T01:09:36;11.00;99.90
10314;DHT22;5202;49.138;10.090;2023-05-07T01:12:05;10.90;99.90
10314;DHT22;5202;49.138;10.090;2023-05-07T01:14:34;10.90;99.90
10314;DHT22;5202;49.138;10.090;2023-05-07T01:17:03;10.80;99.90
10314;DHT22;5202;49.138;10.090;2023-05-07T01:19:32;10.80;99.90
10314;DHT22;5202;49.138;10.090;2023-05-07T01:22:05;10.80;99.90
10314;DHT22;5202;49.138;10.090;2023-05-07T01:24:48;10.80;99.90
10314;DHT22;5202;49.138;10.090;2023-05-07T01:27:17;10.80;99.90
10314;DHT22;5202;49.138;10.090;2023-05-07T01:29:47;10.70;99.90
10314;DHT22;5202;49.138;10.090;2023-05-07T01:32:20;10.80;99.90
10314;DHT22;5202;49.138;10.090;2023-05-07T01:34:52;10.80;99.90
10314;DHT22;5202;49.138;10.090;2023-05-07T01:37:21;10.80;99.90
10314;DHT22;5202;49.138;10.090;2023-05-07T01:39:52;10.90;99.90
10314;DHT22;5202;49.138;10.090;2023-05-07T01:42:21;10.90;99.90
10314;DHT22;5202;49.138;10.090;2023-05-07T01:44:50;11.00;99.90
10314;DHT22;5202;49.138;10.090;2023-05-07T01:47:19;11.00;99.90
10314;DHT22;5202;49.138;10.090;2023-05-07T01:49:48;11.00;99.90
10314;DHT22;5202;49.138;10.090;2023-05-07T01:52:17;11.00;99.90
10314;DHT22;5202;49.138;10.090;2023-05-07T01:54:45;11.00;99.90
10314;DHT22;5202;49.138;10.090;2023-05-07T01:57:15;10.90;99.90
10314;DHT22;5202;49.138;10.090;2023-05-07T01:59:43;10.90;99.90
10314;DHT22;5202;49.138;10.090;2023-05-07T02:02:12;10.80;99.90
10314;DHT22;5202;49.138;10.090;2023-05-07T02:04:47;10.70;99.90
10314;DHT22;5202;49.138;10.090;2023-05-07T02:07:17;10.70;99.90
10314;DHT22;5202;49.138;10.090;2023-05-07T02:09:45;10.60;99.90
10314;DHT22;5202;49.138;10.090;2023-05-07T02:12:21;10.60;99.90
10314;DHT22;5202;49.138;10.090;2023-05-07T02:14:50;10.60;99.90
10314;DHT22;5202;49.138;10.090;2023-05-07T02:17:19;10.60;99.90
10314;DHT22;5202;49.138;10.090;2023-05-07T02:19:47;10.50;99.90
10314;DHT22;5202;49.138;10.090;2023-05-07T02:22:16;10.50;99.90
10314;DHT22;5202;49.138;10.090;2023-05-07T02:24:44;10.50;99.90
10314;DHT22;5202;49.138;10.090;2023-05-07T02:27:12;10.50;99.90
10314;DHT22;5202;49.138;10.090;2023-05-07T02:29:42;10.50;99.90
10314;DHT22;5202;49.138;10.090;2023-05-07T02:32:10;10.40;99.90
10314;DHT22;5202;49.138;10.090;2023-05-07T02:34:38;10.40;99.90
10314;DHT22;5202;49.138;10.090;2023-05-07T02:37:07;10.40;99.90
10314;DHT22;5202;49.138;10.090;2023-05-07T02:39:35;10.30;99.90
10314;DHT22;5202;49.138;10.090;2023-05-07T02:42:03;10.30;99.90
10314;DHT22;5202;49.138;10.090;2023-05-07T02:44:32;10.40;99.90
10314;DHT22;5202;49.138;10.090;2023-05-07T02:47:03;10.40;99.90
10314;DHT22;5202;49.138;10.090;2023-05-07T02:49:35;10.30;99.90
10314;DHT22;5202;49.138;10.090;2023-05-07T02:52:05;10.30;99.90
10314;DHT22;5202;49.138;10.090;2023-05-07T02:54:34;10.30;99.90
10314;DHT22;5202;49.138;10.090;2023-05-07T02:57:02;10.30;99.90
10314;DHT22;5202;49.138;10.090;2023-05-07T02:59:31;10.40;99.90
10314;DHT22;5202;49.138;10.090;2023-05-07T03:01:59;10.40;99.90
10314;DHT22;5202;49.138;10.090;2023-05-07T03:04:29;10.40;99.90
10314;DHT22;5202;49.138;10.090;2023-05-07T03:06:58;10.40;99.90
10314;DHT22;5202;49.138;10.090;2023-05-07T03:09:26;10.50;99.90
10314;DHT22;5202;49.138;10.090;2023-05-07T03:11:55;10.50;99.90
10314;DHT22;5202;49.138;10.090;2023-05-07T03:14:24;10.50;99.90
10314;DHT22;5202;49.138;10.090;2023-05-07T03:16:52;10.50;99.90
10314;DHT22;5202;49.138;10.090;2023-05-07T03:19:20;10.50;99.90
10314;DHT22;5202;49.138;10.090;2023-05-07T03:21:50;10.40;99.90
10314;DHT22;5202;49.138;10.090;2023-05-07T03:24:19;10.30;99.90
10314;DHT22;5202;49.138;10.090;2023-05-07T03:26:47;10.30;99.90
10314;DHT22;5202;49.138;10.090;2023-05-07T03:29:16;10.20;99.90
10314;DHT22;5202;49.138;10.090;2023-05-07T03:31:44;10.20;99.90
10314;DHT22;5202;49.138;10.090;2023-05-07T03:34:13;10.20;99.90
10314;DHT22;5202;49.138;10.090;2023-05-07T03:36:41;10.10;99.90
10314;DHT22;5202;49.138;10.090;2023-05-07T03:39:12;10.20;99.90
10314;DHT22;5202;49.138;10.090;2023-05-07T03:41:41;10.20;99.90
10314;DHT22;5202;49.138;10.090;2023-05-07T03:44:09;10.20;99.90
10314;DHT22;5202;49.138;10.090;2023-05-07T03:46:38;10.10;99.90
10314;DHT22;5202;49.138;10.090;2023-05-07T03:49:09;10.10;99.90
10314;DHT22;5202;49.138;10.090;2023-05-07T03:51:38;10.10;99.90
10314;DHT22;5202;49.138;10.090;2023-05-07T03:54:07;10.10;99.90
10314;DHT22;5202;49.138;10.090;2023-05-07T03:56:39;10.10;99.90
10314;DHT22;5202;49.138;10.090;2023-05-07T03:59:07;10.10;99.90
10314;DHT22;5202;49.138;10.090;2023-05-07T04:01:36;10.10;99.90
10314;DHT22;5202;49.138;10.090;2023-05-07T04:04:09;10.20;99.90
10314;DHT22;5202;49.138;10.090;2023-05-07T04:06:37;10.20;99.90
10314;DHT22;5202;49.138;10.090;2023-05-07T04:09:34;10.20;99.90
10314;DHT22;5202;49.138;10.090;2023-05-07T04:12:05;10.30;99.90
10314;DHT22;5202;49.138;10.090;2023-05-07T04:14:35;10.40;99.90
10314;DHT22;5202;49.138;10.090;2023-05-07T04:17:22;10.40;99.90
10314;DHT22;5202;49.138;10.090;2023-05-07T04:19:50;10.40;99.90
10314;DHT22;5202;49.138;10.090;2023-05-07T04:22:19;10.50;99.90
10314;DHT22;5202;49.138;10.090;2023-05-07T04:24:48;10.50;99.90
10314;DHT22;5202;49.138;10.090;2023-05-07T04:27:17;10.60;99.90
10314;DHT22;5202;49.138;10.090;2023-05-07T04:29:47;10.70;99.90
10314;DHT22;5202;49.138;10.090;2023-05-07T04:32:18;10.70;99.90
10314;DHT22;5202;49.138;10.090;2023-05-07T04:34:46;10.70;99.90
10314;DHT22;5202;49.138;10.090;2023-05-07T04:37:14;10.70;99.90
10314;DHT22;5202;49.138;10.090;2023-05-07T04:39:43;10.60;99.90
10314;DHT22;5202;49.138;10.090;2023-05-07T04:42:14;10.60;99.90
10314;DHT22;5202;49.138;10.090;2023-05-07T04:44:44;10.60;99.90
10314;DHT22;5202;49.138;10.090;2023-05-07T04:47:13;10.60;99.90
10314;DHT22;5202;49.138;10.090;2023-05-07T04:49:41;10.60;99.90
10314;DHT22;5202;49.138;10.090;2023-05-07T04:52:11;10.60;99.90
10314;DHT22;5202;49.138;10.090;2023-05-07T04:54:40;10.70;99.90
10314;DHT22;5202;49.138;10.090;2023-05-07T04:57:08;10.70;99.90
10314;DHT22;5202;49.138;10.090;2023-05-07T04:59:37;10.80;99.90
10314;DHT22;5202;49.138;10.090;2023-05-07T05:02:07;10.90;99.90
10314;DHT22;5202;49.138;10.090;2023-05-07T05:04:35;11.00;99.90
10314;DHT22;5202;49.138;10.090;2023-05-07T05:07:05;11.10;99.90
10314;DHT22;5202;49.138;10.090;2023-05-07T05:09:33;11.20;99.90
10314;DHT22;5202;49.138;10.090;2023-05-07T05:12:01;11.30;99.90
10314;DHT22;5202;49.138;10.090;2023-05-07T05:14:30;11.40;99.90
10314;DHT22;5202;49.138;10.090;2023-05-07T05:16:58;11.40;99.90
10314;DHT22;5202;49.138;10.090;2023-05-07T05:19:27;11.50;99.90
10314;DHT22;5202;49.138;10.090;2023-05-07T05:21:56;11.40;99.90
10314;DHT22;5202;49.138;10.090;2023-05-07T05:24:24;11.40;99.90
10314;DHT22;5202;49.138;10.090;2023-05-07T05:26:53;11.50;99.90
10314;DHT22;5202;49.138;10.090;2023-05-07T05:29:21;11.50;99.90
10314;DHT22;5202;49.138;10.090;2023-05-07T05:31:49;11.60;99.90
10314;DHT22;5202;49.138;10.090;2023-05-07T05:34:18;11.70;99.90
10314;DHT22;5202;49.138;10.090;2023-05-07T05:36:50;11.80;99.90
10314;DHT22;5202;49.138;10.090;2023-05-07T05:39:18;11.90;99.90
10314;DHT22;5202;49.138;10.090;2023-05-07T05:41:46;12.00;99.90
10314;DHT22;5202;49.138;10.090;2023-05-07T05:44:15;12.10;99.90
10314;DHT22;5202;49.138;10.090;2023-05-07T05:46:44;12.20;99.90
10314;DHT22;5202;49.138;10.090;2023-05-07T05:49:12;12.30;99.90
10314;DHT22;5202;49.138;10.090;2023-05-07T05:51:43;12.40;99.90
10314;DHT22;5202;49.138;10.090;2023-05-07T05:54:13;12.40;99.90
10314;DHT22;5202;49.138;10.090;2023-05-07T05:56:43;12.50;99.90
10314;DHT22;5202;49.138;10.090;2023-05-07T05:59:12;12.60;99.90
10314;DHT22;5202;49.138;10.090;2023-05-07T06:01:41;12.70;99.90
10314;DHT22;5202;49.138;10.090;2023-05-07T06:04:09;12.70;99.90
10314;DHT22;5202;49.138;10.090;2023-05-07T06:07:02;12.80;99.90
10314;DHT22;5202;49.138;10.090;2023-05-07T06:09:32;12.80;99.90
10314;DHT22;5202;49.138;10.090;2023-05-07T06:12:06;12.90;99.90
10314;DHT22;5202;49.138;10.090;2023-05-07T06:14:35;13.00;99.90
10314;DHT22;5202;49.138;10.090;2023-05-07T06:17:04;13.20;99.90
10314;DHT22;5202;49.138;10.090;2023-05-07T06:19:32;13.30;99.90
10314;DHT22;5202;49.138;10.090;2023-05-07T06:22:01;13.40;99.90
10314;DHT22;5202;49.138;10.090;2023-05-07T06:24:32;13.40;99.90
10314;DHT22;5202;49.138;10.090;2023-05-07T06:27:00;13.50;99.90
10314;DHT22;5202;49.138;10.090;2023-05-07T06:29:30;13.60;99.90
10314;DHT22;5202;49.138;10.090;2023-05-07T06:32:08;13.70;99.90
10314;DHT22;5202;49.138;10.090;2023-05-07T06:34:39;13.80;99.90
10314;DHT22;5202;49.138;10.090;2023-05-07T06:37:08;13.90;99.90
10314;DHT22;5202;49.138;10.090;2023-05-07T06:39:49;14.00;99.90
10314;DHT22;5202;49.138;10.090;2023-05-07T06:42:17;14.20;99.90
10314;DHT22;5202;49.138;10.090;2023-05-07T06:44:47;14.40;99.90
10314;DHT22;5202;49.138;10.090;2023-05-07T06:47:17;14.50;99.90
10314;DHT22;5202;49.138;10.090;2023-05-07T06:49:50;14.60;99.90
10314;DHT22;5202;49.138;10.090;2023-05-07T06:52:21;14.70;99.90
10314;DHT22;5202;49.138;10.090;2023-05-07T06:54:51;14.70;99.90
10314;DHT22;5202;49.138;10.090;2023-05-07T06:57:21;14.80;99.90
10314;DHT22;5202;49.138;10.090;2023-05-07T06:59:50;14.90;99.90
10314;DHT22;5202;49.138;10.090;2023-05-07T07:02:20;14.90;99.90
10314;DHT22;5202;49.138;10.090;2023-05-07T07:04:49;15.00;99.90
10314;DHT22;5202;49.138;10.090;2023-05-07T07:07:18;15.10;99.90
10314;DHT22;5202;49.138;10.090;2023-05-07T07:09:50;15.20;99.90
10314;DHT22;5202;49.138;10.090;2023-05-07T07:12:19;15.40;99.90
10314;DHT22;5202;49.138;10.090;2023-05-07T07:14:47;15.60;99.90
10314;DHT22;5202;49.138;10.090;2023-05-07T07:17:15;15.70;99.90
10314;DHT22;5202;49.138;10.090;2023-05-07T07:19:44;15.90;99.90
10314;DHT22;5202;49.138;10.090;2023-05-07T07:22:13;16.10;99.90
10314;DHT22;5202;49.138;10.090;2023-05-07T07:24:41;16.30;99.90
10314;DHT22;5202;49.138;10.090;2023-05-07T07:27:14;16.50;99.90
10314;DHT22;5202;49.138;10.090;2023-05-07T07:29:42;16.70;99.90
10314;DHT22;5202;49.138;10.090;2023-05-07T07:32:10;16.90;99.90
10314;DHT22;5202;49.138;10.090;2023-05-07T07:34:39;17.10;99.90
10314;DHT22;5202;49.138;10.090;2023-05-07T07:37:08;17.30;99.90
10314;DHT22;5202;49.138;10.090;2023-05-07T07:39:37;17.50;99.90
10314;DHT22;5202;49.138;10.090;2023-05-07T07:42:07;17.50;99.90
10314;DHT22;5202;49.138;10.090;2023-05-07T07:44:37;17.60;99.90
10314;DHT22;5202;49.138;10.090;2023-05-07T07:47:08;17.60;99.90
10314;DHT22;5202;49.138;10.090;2023-05-07T07:49:37;17.70;99.90
10314;DHT22;5202;49.138;10.090;2023-05-07T07:52:09;17.90;99.90
10314;DHT22;5202;49.138;10.090;2023-05-07T07:54:39;18.10;99.90
10314;DHT22;5202;49.138;10.090;2023-05-07T07:57:07;18.30;99.90
10314;DHT22;5202;49.138;10.090;2023-05-07T07:59:37;18.40;99.90
10314;DHT22;5202;49.138;10.090;2023-05-07T08:02:07;18.60;99.90
10314;DHT22;5202;49.138;10.090;2023-05-07T08:04:48;18.80;99.90
10314;DHT22;5202;49.138;10.090;2023-05-07T08:07:20;19.00;99.90
10314;DHT22;5202;49.138;10.090;2023-05-07T08:09:50;19.10;98.70
10314;DHT22;5202;49.138;10.090;2023-05-07T08:12:22;19.20;99.00
10314;DHT22;5202;49.138;10.090;2023-05-07T08:14:52;19.10;98.10
10314;DHT22;5202;49.138;10.090;2023-05-07T08:17:21;19.10;96.60
10314;DHT22;5202;49.138;10.090;2023-05-07T08:19:50;19.20;97.10
10314;DHT22;5202;49.138;10.090;2023-05-07T08:22:18;19.20;96.70
10314;DHT22;5202;49.138;10.090;2023-05-07T08:24:48;19.40;96.30
10314;DHT22;5202;49.138;10.090;2023-05-07T08:27:16;19.50;96.10
10314;DHT22;5202;49.138;10.090;2023-05-07T08:29:45;19.80;96.70
10314;DHT22;5202;49.138;10.090;2023-05-07T08:32:18;19.90;95.70
10314;DHT22;5202;49.138;10.090;2023-05-07T08:34:47;20.10;94.70
10314;DHT22;5202;49.138;10.090;2023-05-07T08:37:15;20.10;94.20
10314;DHT22;5202;49.138;10.090;2023-05-07T08:39:45;20.20;94.50
10314;DHT22;5202;49.138;10.090;2023-05-07T08:42:20;20.20;93.90
10314;DHT22;5202;49.138;10.090;2023-05-07T08:44:51;20.40;94.70
10314;DHT22;5202;49.138;10.090;2023-05-07T08:47:29;20.60;94.00
10314;DHT22;5202;49.138;10.090;2023-05-07T08:50:01;20.60;94.00
10314;DHT22;5202;49.138;10.090;2023-05-07T08:52:29;20.70;93.80
10314;DHT22;5202;49.138;10.090;2023-05-07T08:54:59;20.80;93.40
10314;DHT22;5202;49.138;10.090;2023-05-07T08:57:29;20.90;93.50
10314;DHT22;5202;49.138;10.090;2023-05-07T08:59:58;20.90;92.10
10314;DHT22;5202;49.138;10.090;2023-05-07T09:02:28;20.90;92.70
10314;DHT22;5202;49.138;10.090;2023-05-07T09:04:57;20.90;92.20
10314;DHT22;5202;49.138;10.090;2023-05-07T09:07:26;21.00;92.50
10314;DHT22;5202;49.138;10.090;2023-05-07T09:09:54;21.20;92.50
10314;DHT22;5202;49.138;10.090;2023-05-07T09:12:24;21.30;92.80
10314;DHT22;5202;49.138;10.090;2023-05-07T09:14:54;21.40;92.30
10314;DHT22;5202;49.138;10.090;2023-05-07T09:17:22;21.30;91.30
10314;DHT22;5202;49.138;10.090;2023-05-07T09:19:52;21.30;91.20
10314;DHT22;5202;49.138;10.090;2023-05-07T09:22:21;21.40;90.70
10314;DHT22;5202;49.138;10.090;2023-05-07T09:24:58;21.40;91.10
10314;DHT22;5202;49.138;10.090;2023-05-07T09:27:27;21.50;91.60
10314;DHT22;5202;49.138;10.090;2023-05-07T09:29:57;21.80;93.00
10314;DHT22;5202;49.138;10.090;2023-05-07T09:32:26;22.00;92.40
10314;DHT22;5202;49.138;10.090;2023-05-07T09:34:57;22.00;91.50
10314;DHT22;5202;49.138;10.090;2023-05-07T09:37:27;22.00;87.10
10314;DHT22;5202;49.138;10.090;2023-05-07T09:39:55;22.10;90.30
10314;DHT22;5202;49.138;10.090;2023-05-07T09:42:26;22.20;90.80
10314;DHT22;5202;49.138;10.090;2023-05-07T09:44:59;22.30;89.20
10314;DHT22;5202;49.138;10.090;2023-05-07T09:47:37;22.30;87.60
10314;DHT22;5202;49.138;10.090;2023-05-07T09:50:10;22.40;90.90
10314;DHT22;5202;49.138;10.090;2023-05-07T09:52:40;22.50;88.00
10314;DHT22;5202;49.138;10.090;2023-05-07T09:55:10;22.50;87.30
10314;DHT22;5202;49.138;10.090;2023-05-07T09:57:42;22.60;87.00
10314;DHT22;5202;49.138;10.090;2023-05-07T10:00:12;22.50;82.40
10314;DHT22;5202;49.138;10.090;2023-05-07T10:02:49;22.60;86.80
10314;DHT22;5202;49.138;10.090;2023-05-07T10:05:29;22.70;84.20
10314;DHT22;5202;49.138;10.090;2023-05-07T10:08:01;22.80;88.00
10314;DHT22;5202;49.138;10.090;2023-05-07T10:10:33;22.90;87.60
10314;DHT22;5202;49.138;10.090;2023-05-07T10:13:04;23.00;86.20
10314;DHT22;5202;49.138;10.090;2023-05-07T10:15:59;23.00;81.40
10314;DHT22;5202;49.138;10.090;2023-05-07T10:18:33;23.10;87.60
10314;DHT22;5202;49.138;10.090;2023-05-07T10:21:13;23.10;86.30
10314;DHT22;5202;49.138;10.090;2023-05-07T10:23:50;22.90;87.10
10314;DHT22;5202;49.138;10.090;2023-05-07T10:26:21;22.80;87.60
10314;DHT22;5202;49.138;10.090;2023-05-07T10:28:54;22.80;85.80
10314;DHT22;5202;49.138;10.090;2023-05-07T10:31:46;22.80;87.80
10314;DHT22;5202;49.138;10.090;2023-05-07T10:34:21;22.90;89.60
10314;DHT22;5202;49.138;10.090;2023-05-07T10:36:54;22.80;86.50
10314;DHT22;5202;49.138;10.090;2023-05-07T10:39:24;22.70;86.30
10314;DHT22;5202;49.138;10.090;2023-05-07T10:41:53;22.70;87.10
10314;DHT22;5202;49.138;10.090;2023-05-07T10:44:26;22.90;84.60
10314;DHT22;5202;49.138;10.090;2023-05-07T10:47:07;23.10;83.40
10314;DHT22;5202;49.138;10.090;2023-05-07T10:50:22;23.30;84.90
10314;DHT22;5202;49.138;10.090;2023-05-07T10:53:23;23.00;80.30
10314;DHT22;5202;49.138;10.090;2023-05-07T10:56:35;23.10;83.10
10314;DHT22;5202;49.138;10.090;2023-05-07T10:59:31;23.10;85.40
10314;DHT22;5202;49.138;10.090;2023-05-07T11:02:13;23.10;81.70
10314;DHT22;5202;49.138;10.090;2023-05-07T11:05:19;23.00;82.20
10314;DHT22;5202;49.138;10.090;2023-05-07T11:07:55;23.00;84.70
10314;DHT22;5202;49.138;10.090;2023-05-07T11:10:51;23.30;87.30
10314;DHT22;5202;49.138;10.090;2023-05-07T11:13:43;23.50;84.80
10314;DHT22;5202;49.138;10.090;2023-05-07T11:16:21;23.50;84.70
10314;DHT22;5202;49.138;10.090;2023-05-07T11:18:59;23.50;81.40
10314;DHT22;5202;49.138;10.090;2023-05-07T11:21:35;23.50;80.70
10314;DHT22;5202;49.138;10.090;2023-05-07T11:24:23;23.70;85.70
10314;DHT22;5202;49.138;10.090;2023-05-07T11:26:58;23.90;84.00
10314;DHT22;5202;49.138;10.090;2023-05-07T11:29:27;24.00;82.00
10314;DHT22;5202;49.138;10.090;2023-05-07T11:32:03;24.10;84.40
10314;DHT22;5202;49.138;10.090;2023-05-07T11:34:47;24.00;81.10
10314;DHT22;5202;49.138;10.090;2023-05-07T11:37:17;24.00;81.50
10314;DHT22;5202;49.138;10.090;2023-05-07T11:40:02;23.90;81.70
10314;DHT22;5202;49.138;10.090;2023-05-07T11:42:34;23.90;81.80
10314;DHT22;5202;49.138;10.090;2023-05-07T11:45:05;23.90;85.00
10314;DHT22;5202;49.138;10.090;2023-05-07T11:47:35;23.90;82.50
10314;DHT22;5202;49.138;10.090;2023-05-07T11:50:07;23.90;82.10
10314;DHT22;5202;49.138;10.090;2023-05-07T11:52:37;24.00;82.20
10314;DHT22;5202;49.138;10.090;2023-05-07T11:55:07;23.90;81.60
10314;DHT22;5202;49.138;10.090;2023-05-07T11:57:37;23.80;82.60
10314;DHT22;5202;49.138;10.090;2023-05-07T12:00:07;23.60;83.60
10314;DHT22;5202;49.138;10.090;2023-05-07T12:02:39;23.40;84.10
10314;DHT22;5202;49.138;10.090;2023-05-07T12:05:09;23.30;84.80
10314;DHT22;5202;49.138;10.090;2023-05-07T12:07:39;23.30;86.10
10314;DHT22;5202;49.138;10.090;2023-05-07T12:10:11;23.30;86.80
10314;DHT22;5202;49.138;10.090;2023-05-07T12:12:46;23.30;85.60
10314;DHT22;5202;49.138;10.090;2023-05-07T12:15:16;23.30;86.40
10314;DHT22;5202;49.138;10.090;2023-05-07T12:17:44;23.30;85.60
10314;DHT22;5202;49.138;10.090;2023-05-07T12:20:13;23.30;85.10
10314;DHT22;5202;49.138;10.090;2023-05-07T12:22:41;23.30;85.30
10314;DHT22;5202;49.138;10.090;2023-05-07T12:25:10;23.40;86.10
10314;DHT22;5202;49.138;10.090;2023-05-07T12:27:42;23.30;84.70
10314;DHT22;5202;49.138;10.090;2023-05-07T12:30:12;23.30;85.20
10314;DHT22;5202;49.138;10.090;2023-05-07T12:32:40;23.30;86.80
10314;DHT22;5202;49.138;10.090;2023-05-07T12:35:09;23.40;86.30
10314;DHT22;5202;49.138;10.090;2023-05-07T12:37:37;23.40;86.90
10314;DHT22;5202;49.138;10.090;2023-05-07T12:40:08;23.30;86.00
10314;DHT22;5202;49.138;10.090;2023-05-07T12:42:39;23.40;85.30
10314;DHT22;5202;49.138;10.090;2023-05-07T12:45:10;23.40;86.40
10314;DHT22;5202;49.138;10.090;2023-05-07T12:47:43;23.50;86.20
10314;DHT22;5202;49.138;10.090;2023-05-07T12:50:12;23.60;86.30
10314;DHT22;5202;49.138;10.090;2023-05-07T12:52:43;23.70;86.10
10314;DHT22;5202;49.138;10.090;2023-05-07T12:55:14;23.80;89.60
10314;DHT22;5202;49.138;10.090;2023-05-07T12:57:47;23.90;87.40
10314;DHT22;5202;49.138;10.090;2023-05-07T13:00:32;23.90;87.40
10314;DHT22;5202;49.138;10.090;2023-05-07T13:03:01;23.90;87.80
10314;DHT22;5202;49.138;10.090;2023-05-07T13:05:30;24.00;86.30
10314;DHT22;5202;49.138;10.090;2023-05-07T13:07:58;23.90;85.40
10314;DHT22;5202;49.138;10.090;2023-05-07T13:10:27;23.70;86.50
10314;DHT22;5202;49.138;10.090;2023-05-07T13:12:55;23.60;85.20
10314;DHT22;5202;49.138;10.090;2023-05-07T13:15:25;23.40;83.90
10314;DHT22;5202;49.138;10.090;2023-05-07T13:17:53;23.50;86.30
10314;DHT22;5202;49.138;10.090;2023-05-07T13:20:22;23.50;83.00
10314;DHT22;5202;49.138;10.090;2023-05-07T13:22:50;23.50;81.90
10314;DHT22;5202;49.138;10.090;2023-05-07T13:25:19;23.60;84.00
10314;DHT22;5202;49.138;10.090;2023-05-07T13:27:48;23.50;84.00
10314;DHT22;5202;49.138;10.090;2023-05-07T13:30:37;23.50;84.20
10314;DHT22;5202;49.138;10.090;2023-05-07T13:33:05;23.70;85.20
10314;DHT22;5202;49.138;10.090;2023-05-07T13:35:33;23.90;88.70
10314;DHT22;5202;49.138;10.090;2023-05-07T13:38:02;24.10;87.00
10314;DHT22;5202;49.138;10.090;2023-05-07T13:40:30;24.10;85.90
10314;DHT22;5202;49.138;10.090;2023-05-07T13:42:59;24.00;84.40
10314;DHT22;5202;49.138;10.090;2023-05-07T13:45:29;23.90;83.40
10314;DHT22;5202;49.138;10.090;2023-05-07T13:47:58;23.80;83.00
10314;DHT22;5202;49.138;10.090;2023-05-07T13:50:27;23.60;83.80
10314;DHT22;5202;49.138;10.090;2023-05-07T13:52:56;23.60;83.00
10314;DHT22;5202;49.138;10.090;2023-05-07T13:55:25;23.60;85.10
10314;DHT22;5202;49.138;10.090;2023-05-07T13:57:56;23.60;82.80
10314;DHT22;5202;49.138;10.090;2023-05-07T14:00:26;23.70;86.00
10314;DHT22;5202;49.138;10.090;2023-05-07T14:02:55;23.60;84.90
10314;DHT22;5202;49.138;10.090;2023-05-07T14:05:26;23.60;85.50
10314;DHT22;5202;49.138;10.090;2023-05-07T14:08:00;23.60;85.90
10314;DHT22;5202;49.138;10.090;2023-05-07T14:10:30;23.70;84.70
10314;DHT22;5202;49.138;10.090;2023-05-07T14:13:02;23.70;84.40
10314;DHT22;5202;49.138;10.090;2023-05-07T14:15:49;23.60;83.20
10314;DHT22;5202;49.138;10.090;2023-05-07T14:18:17;23.60;85.50
10314;DHT22;5202;49.138;10.090;2023-05-07T14:20:47;23.60;85.60
10314;DHT22;5202;49.138;10.090;2023-05-07T14:23:16;23.60;85.00
10314;DHT22;5202;49.138;10.090;2023-05-07T14:25:46;23.60;84.70
10314;DHT22;5202;49.138;10.090;2023-05-07T14:28:14;23.60;84.50
10314;DHT22;5202;49.138;10.090;2023-05-07T14:30:42;23.50;85.30
10314;DHT22;5202;49.138;10.090;2023-05-07T14:33:11;23.50;85.00
10314;DHT22;5202;49.138;10.090;2023-05-07T14:35:39;23.50;86.40
10314;DHT22;5202;49.138;10.090;2023-05-07T14:38:09;23.40;85.10
10314;DHT22;5202;49.138;10.090;2023-05-07T14:40:37;23.40;84.50
10314;DHT22;5202;49.138;10.090;2023-05-07T14:43:05;23.30;85.00
10314;DHT22;5202;49.138;10.090;2023-05-07T14:45:34;23.20;82.80
10314;DHT22;5202;49.138;10.090;2023-05-07T14:48:03;23.20;84.20
10314;DHT22;5202;49.138;10.090;2023-05-07T14:50:32;23.20;84.90
10314;DHT22;5202;49.138;10.090;2023-05-07T14:53:00;23.20;84.70
10314;DHT22;5202;49.138;10.090;2023-05-07T14:55:29;23.20;84.80
10314;DHT22;5202;49.138;10.090;2023-05-07T14:58:01;23.20;85.10
10314;DHT22;5202;49.138;10.090;2023-05-07T15:00:29;23.30;84.80
10314;DHT22;5202;49.138;10.090;2023-05-07T15:03:05;23.20;85.10
10314;DHT22;5202;49.138;10.090;2023-05-07T15:05:35;23.10;85.10
10314;DHT22;5202;49.138;10.090;2023-05-07T15:08:04;23.10;85.20
10314;DHT22;5202;49.138;10.090;2023-05-07T15:10:36;23.00;84.40
10314;DHT22;5202;49.138;10.090;2023-05-07T15:13:08;23.00;84.30
10314;DHT22;5202;49.138;10.090;2023-05-07T15:15:42;22.90;84.50
10314;DHT22;5202;49.138;10.090;2023-05-07T15:18:11;22.80;85.90
10314;DHT22;5202;49.138;10.090;2023-05-07T15:20:40;22.80;86.80
10314;DHT22;5202;49.138;10.090;2023-05-07T15:23:11;22.70;87.00
10314;DHT22;5202;49.138;10.090;2023-05-07T15:25:45;22.60;84.10
10314;DHT22;5202;49.138;10.090;2023-05-07T15:28:18;22.60;85.60
10314;DHT22;5202;49.138;10.090;2023-05-07T15:30:46;22.60;86.90
10314;DHT22;5202;49.138;10.090;2023-05-07T15:33:14;22.50;85.30
10314;DHT22;5202;49.138;10.090;2023-05-07T15:35:42;22.40;85.90
10314;DHT22;5202;49.138;10.090;2023-05-07T15:38:11;22.30;84.90
10314;DHT22;5202;49.138;10.090;2023-05-07T15:40:40;22.30;84.20
10314;DHT22;5202;49.138;10.090;2023-05-07T15:43:11;22.20;85.90
10314;DHT22;5202;49.138;10.090;2023-05-07T15:45:41;22.20;85.00
10314;DHT22;5202;49.138;10.090;2023-05-07T15:48:10;22.20;84.70
10314;DHT22;5202;49.138;10.090;2023-05-07T15:50:39;22.10;86.40
10314;DHT22;5202;49.138;10.090;2023-05-07T15:53:07;22.20;86.20
10314;DHT22;5202;49.138;10.090;2023-05-07T15:55:36;22.20;84.70